Prince George, Canada
Current Conditions -  °F | °C
As of 5:16 AM on Thursday 18 Dec 2014 (Local Time) from CYXS Reporting Station
Overcast Overcast  
Wind Chill: 28°   Ceiling: 500
Heat Index: 28°   Visibility: 8mi
Dew Point: 28°   Wind: 0mph
Humidity: 100%   Direction: NA
Pressure: 29.78"   Gusts: NA
Location:  53.91°N, 122.75°W
Report Text: CYXS 181316Z AUTO 00000KT 8SM OVC005 M02/M02 A2978 RMK SLP120
Loading
Personal Weather Stations






























Interactive Weather Map New forecast layout! Learn more

10-Day Weather Forecast

Advertisements
Track Severe Weather on mobile